createdAt,value
2019-03-09T00:01:12.438Z,1.22
2019-03-09T00:06:09.503Z,5.00
2019-03-09T00:08:38.496Z,0.40
2019-03-09T00:11:07.492Z,3.98
2019-03-09T00:13:36.483Z,4.58
2019-03-09T00:16:05.475Z,2.80
2019-03-09T00:18:34.469Z,1.82
2019-03-09T00:21:03.814Z,3.52
2019-03-09T00:23:34.298Z,1.90
2019-03-09T00:26:21.416Z,6.55
2019-03-09T00:29:03.620Z,3.15
2019-03-09T00:31:34.151Z,5.53
2019-03-09T00:34:04.062Z,3.45
2019-03-09T00:36:33.058Z,3.15
2019-03-09T00:39:02.050Z,3.72
2019-03-09T00:41:31.352Z,3.27
2019-03-09T00:44:00.344Z,1.90
2019-03-09T00:46:29.228Z,3.10
2019-03-09T00:48:58.121Z,4.37
2019-03-09T00:51:27.014Z,3.92
2019-03-09T00:53:56.315Z,5.85
2019-03-09T00:56:25.308Z,2.37
2019-03-09T00:58:54.302Z,1.85
2019-03-09T01:01:23.294Z,7.78
2019-03-09T01:03:52.307Z,3.60
2019-03-09T01:06:21.281Z,1.57
2019-03-09T01:08:50.284Z,2.60
2019-03-09T01:11:19.266Z,6.47
2019-03-09T01:13:48.156Z,4.83
2019-03-09T01:16:17.253Z,7.72
2019-03-09T01:18:46.246Z,4.92
2019-03-09T01:21:15.245Z,4.95
2019-03-09T01:23:44.232Z,1.90
2019-03-09T01:26:13.225Z,3.20
2019-03-09T01:28:42.217Z,3.50
2019-03-09T01:31:11.504Z,2.50
2019-03-09T01:33:40.512Z,3.62
2019-03-09T01:36:09.505Z,4.22
2019-03-09T01:38:38.533Z,4.80
2019-03-09T01:41:07.491Z,6.12
2019-03-09T01:43:36.483Z,2.08
2019-03-09T01:46:05.477Z,2.27
2019-03-09T01:48:34.470Z,1.45
2019-03-09T01:51:03.463Z,1.95
2019-03-09T01:53:36.687Z,2.98
2019-03-09T01:56:02.988Z,2.22
2019-03-09T01:58:31.982Z,2.75
2019-03-09T02:01:00.972Z,3.30
2019-03-09T02:03:29.855Z,3.20
2019-03-09T02:05:58.749Z,5.15
2019-03-09T02:08:27.742Z,5.87
2019-03-09T02:10:56.636Z,3.90
2019-03-09T02:13:26.553Z,3.65
2019-03-09T02:15:55.544Z,3.55
2019-03-09T02:18:24.427Z,6.03
2019-03-09T02:20:53.537Z,3.40
2019-03-09T02:23:22.526Z,6.58
2019-03-09T02:25:51.517Z,4.25
2019-03-09T02:28:20.347Z,5.25
2019-03-09T02:30:49.295Z,2.83
2019-03-09T02:33:18.188Z,1.15
2019-03-09T02:35:47.181Z,3.80
2019-03-09T02:38:17.711Z,7.03
2019-03-09T02:40:46.708Z,3.37
2019-03-09T02:43:15.699Z,6.40
2019-03-09T02:45:44.689Z,2.90
2019-03-09T02:48:13.537Z,2.95
2019-03-09T02:50:43.936Z,2.50
2019-03-09T02:53:13.017Z,3.25
2019-03-09T02:55:41.866Z,4.70
2019-03-09T02:58:10.889Z,2.92
2019-03-09T03:00:41.415Z,3.40
2019-03-09T03:03:10.410Z,7.35
2019-03-09T03:05:39.400Z,2.80
2019-03-09T03:08:08.395Z,5.58
2019-03-09T03:10:37.394Z,3.92
2019-03-09T03:13:06.379Z,4.92
2019-03-09T03:15:36.495Z,7.35
2019-03-09T03:18:06.105Z,5.28
2019-03-09T03:20:35.004Z,5.42
2019-03-09T03:23:03.888Z,4.55
2019-03-09T03:25:32.880Z,6.47
2019-03-09T03:28:01.792Z,6.80
2019-03-09T03:30:30.634Z,6.87
2019-03-09T03:33:00.677Z,4.15
2019-03-09T03:35:29.567Z,6.03
2019-03-09T03:37:58.460Z,5.37
2019-03-09T03:40:27.455Z,3.25
2019-03-09T03:42:56.449Z,4.45
2019-03-09T03:45:25.439Z,4.30
2019-03-09T03:47:54.445Z,6.90
2019-03-09T03:50:23.316Z,8.18
2019-03-09T03:52:52.313Z,5.28
2019-03-09T03:55:21.204Z,3.05
2019-03-09T03:57:50.097Z,5.78
2019-03-09T04:00:19.092Z,5.35
2019-03-09T04:02:48.087Z,7.20
2019-03-09T04:05:16.917Z,5.60
2019-03-09T04:07:46.173Z,5.33
2019-03-09T04:10:15.385Z,4.58
2019-03-09T04:12:44.677Z,5.87
2019-03-09T04:15:13.796Z,3.58
2019-03-09T04:17:42.763Z,6.45
2019-03-09T04:20:12.478Z,5.87
2019-03-09T04:22:41.364Z,10.68
2019-03-09T04:25:10.662Z,4.90
2019-03-09T04:27:39.575Z,5.78
2019-03-09T04:30:11.003Z,7.97
2019-03-09T04:32:39.995Z,9.35
2019-03-09T04:35:09.118Z,6.58
2019-03-09T04:37:38.085Z,8.33
2019-03-09T04:40:09.437Z,9.23
2019-03-09T04:42:39.324Z,10.70
2019-03-09T04:45:11.930Z,4.92
2019-03-09T04:47:41.020Z,8.93
2019-03-09T04:50:11.848Z,9.68
2019-03-09T04:52:40.849Z,5.62
2019-03-09T04:55:10.280Z,10.72
2019-03-09T04:57:39.240Z,9.50
2019-03-09T05:00:11.100Z,10.60
2019-03-09T05:02:39.990Z,11.50
2019-03-09T05:05:28.246Z,8.70
2019-03-09T05:08:05.933Z,7.97
2019-03-09T05:10:52.748Z,7.50
2019-03-09T05:13:24.713Z,7.85
2019-03-09T05:15:53.679Z,8.00
2019-03-09T05:18:22.698Z,9.53
2019-03-09T05:20:51.691Z,9.80
2019-03-09T05:23:20.572Z,9.98
2019-03-09T05:25:49.469Z,14.00
2019-03-09T05:28:18.365Z,9.90
2019-03-09T05:30:47.579Z,6.62
2019-03-09T05:33:17.162Z,8.68
2019-03-09T05:35:46.263Z,8.90
2019-03-09T05:38:15.257Z,14.50
2019-03-09T05:40:44.251Z,7.75
2019-03-09T05:43:13.261Z,11.75
2019-03-09T05:45:43.157Z,7.62
2019-03-09T05:48:12.150Z,8.95
2019-03-09T05:50:41.143Z,11.83
2019-03-09T05:53:15.360Z,15.40
2019-03-09T05:55:44.351Z,6.53
2019-03-09T05:58:13.237Z,12.82
2019-03-09T06:00:42.951Z,10.45
2019-03-09T06:03:12.251Z,15.85
2019-03-09T06:05:43.581Z,12.47
2019-03-09T06:08:14.846Z,10.70
2019-03-09T06:10:43.841Z,7.45
2019-03-09T06:13:12.819Z,13.35
2019-03-09T06:15:41.829Z,14.23
2019-03-09T06:18:10.821Z,16.37
2019-03-09T06:20:39.917Z,10.30
2019-03-09T06:23:08.805Z,13.72
2019-03-09T06:25:38.673Z,9.40
2019-03-09T06:28:07.811Z,11.78
2019-03-09T06:30:36.705Z,12.93
2019-03-09T06:33:20.346Z,8.48
2019-03-09T06:35:52.401Z,12.93
2019-03-09T06:38:27.092Z,10.85
2019-03-09T06:41:02.707Z,12.37
2019-03-09T06:43:26.531Z,11.88
2019-03-09T06:45:55.441Z,13.50
2019-03-09T06:48:24.541Z,9.63
2019-03-09T06:50:53.420Z,13.62
2019-03-09T06:53:22.328Z,15.70
2019-03-09T06:55:51.212Z,10.78
2019-03-09T06:58:20.205Z,10.03
2019-03-09T07:00:49.198Z,7.87
2019-03-09T07:03:18.298Z,15.20
2019-03-09T07:05:47.302Z,13.55
2019-03-09T07:08:16.179Z,12.28
2019-03-09T07:10:45.171Z,13.65
2019-03-09T07:13:14.006Z,16.15
2019-03-09T07:15:43.141Z,8.00
2019-03-09T07:18:14.545Z,18.17
2019-03-09T07:20:43.601Z,14.90
2019-03-09T07:23:12.599Z,7.87
2019-03-09T07:25:41.433Z,12.05
2019-03-09T07:28:13.875Z,10.75
2019-03-09T07:33:10.813Z,12.37
2019-03-09T07:35:39.711Z,10.75
2019-03-09T07:38:08.705Z,9.78
2019-03-09T07:40:37.696Z,9.55
2019-03-09T07:43:11.187Z,15.83
2019-03-09T07:45:40.087Z,10.72
2019-03-09T07:48:10.016Z,25.00
2019-03-09T07:50:39.394Z,9.95
2019-03-09T07:53:08.303Z,9.80
2019-03-09T07:55:37.260Z,9.00
2019-03-09T07:58:06.795Z,8.43
2019-03-09T08:00:35.883Z,9.78
2019-03-09T08:03:05.716Z,12.37
2019-03-09T08:05:34.892Z,18.48
2019-03-09T08:08:03.993Z,12.13
2019-03-09T08:10:32.986Z,7.72
2019-03-09T08:13:01.982Z,12.15
2019-03-09T08:15:32.783Z,11.00
2019-03-09T08:18:01.769Z,9.33
2019-03-09T08:20:31.417Z,8.03
2019-03-09T08:23:00.290Z,9.73
2019-03-09T08:25:30.011Z,8.53
2019-03-09T08:27:58.900Z,5.30
2019-03-09T08:30:28.861Z,11.85
2019-03-09T08:32:58.024Z,8.30
2019-03-09T08:35:26.838Z,8.55
2019-03-09T08:37:55.927Z,9.78
2019-03-09T08:40:24.782Z,11.48
2019-03-09T08:42:53.782Z,9.28
2019-03-09T08:45:22.674Z,9.23
2019-03-09T08:47:52.824Z,4.75
2019-03-09T08:50:23.669Z,8.65
2019-03-09T08:52:52.656Z,12.80
2019-03-09T08:55:22.688Z,11.63
2019-03-09T08:57:51.844Z,10.23
2019-03-09T09:00:25.936Z,11.50
2019-03-09T09:02:55.055Z,8.28
2019-03-09T09:05:24.149Z,9.50
2019-03-09T09:07:53.162Z,10.60
2019-03-09T09:10:22.040Z,12.65
2019-03-09T09:12:51.354Z,11.40
2019-03-09T09:15:20.324Z,9.38
2019-03-09T09:17:50.857Z,15.85
2019-03-09T09:20:24.300Z,8.90
2019-03-09T09:22:53.154Z,9.00
2019-03-09T09:25:23.770Z,14.20
2019-03-09T09:27:54.205Z,8.18
2019-03-09T09:30:25.027Z,13.28
2019-03-09T09:32:54.031Z,12.13
2019-03-09T09:35:22.987Z,12.43
2019-03-09T09:37:52.603Z,10.63
2019-03-09T09:40:28.483Z,8.75
2019-03-09T09:42:57.470Z,8.03
2019-03-09T09:45:26.370Z,12.35
2019-03-09T09:47:55.366Z,7.25
2019-03-09T09:50:24.404Z,6.70
2019-03-09T09:52:53.751Z,11.45
2019-03-09T09:55:22.653Z,10.25
2019-03-09T09:57:51.643Z,9.50
2019-03-09T10:00:22.665Z,6.90
2019-03-09T10:02:51.565Z,12.60
2019-03-09T10:05:21.919Z,6.20
2019-03-09T10:07:50.774Z,10.72
2019-03-09T10:10:39.009Z,9.90
2019-03-09T10:13:08.025Z,12.05
2019-03-09T10:15:39.331Z,11.33
2019-03-09T10:18:07.547Z,18.37
2019-03-09T10:20:36.539Z,21.00
2019-03-09T10:23:05.430Z,23.20
2019-03-09T10:25:34.321Z,11.15
2019-03-09T10:28:03.211Z,14.60
2019-03-09T10:30:32.203Z,9.85
2019-03-09T10:33:01.199Z,11.60
2019-03-09T10:35:30.190Z,9.48
2019-03-09T10:37:59.197Z,9.30
2019-03-09T10:40:28.177Z,10.88
2019-03-09T10:42:57.169Z,14.28
2019-03-09T10:45:26.056Z,7.35
2019-03-09T10:47:56.383Z,10.63
2019-03-09T10:50:26.113Z,11.20
2019-03-09T10:52:55.299Z,9.23
2019-03-09T10:55:29.814Z,9.60
2019-03-09T10:57:58.808Z,9.93
2019-03-09T11:00:35.479Z,10.38
2019-03-09T11:03:04.669Z,13.68
2019-03-09T11:05:36.647Z,11.65
2019-03-09T11:08:05.863Z,7.10
2019-03-09T11:10:34.833Z,10.98
2019-03-09T11:13:03.825Z,13.70
2019-03-09T11:15:33.431Z,11.55
2019-03-09T11:18:02.425Z,9.75
2019-03-09T11:20:31.420Z,12.78
2019-03-09T11:23:00.302Z,12.70
2019-03-09T11:25:29.195Z,16.27
2019-03-09T11:28:09.555Z,12.15
2019-03-09T11:30:38.549Z,15.70
2019-03-09T11:33:07.442Z,10.13
2019-03-09T11:35:36.316Z,13.80
2019-03-09T11:38:05.219Z,16.95
2019-03-09T11:40:34.115Z,11.12
2019-03-09T11:43:03.108Z,16.62
2019-03-09T11:45:31.996Z,14.15
2019-03-09T11:48:01.106Z,13.03
2019-03-09T11:50:32.127Z,14.95
2019-03-09T11:53:01.231Z,13.20
2019-03-09T11:55:30.225Z,11.40
2019-03-09T11:57:59.215Z,11.12
2019-03-09T12:00:29.635Z,10.20
2019-03-09T12:02:58.532Z,8.30
2019-03-09T12:05:27.344Z,7.53
2019-03-09T12:07:56.421Z,8.98
2019-03-09T12:10:25.295Z,10.70
2019-03-09T12:12:54.197Z,18.45
2019-03-09T12:15:23.090Z,13.65
2019-03-09T12:17:52.086Z,19.20
2019-03-09T12:20:22.614Z,10.50
2019-03-09T12:22:51.606Z,12.73
2019-03-09T12:25:20.598Z,11.88
2019-03-09T12:27:49.484Z,8.93
2019-03-09T12:30:21.670Z,17.77
2019-03-09T12:32:50.652Z,8.55
2019-03-09T12:35:19.642Z,10.78
2019-03-09T12:37:48.636Z,13.45
2019-03-09T12:40:18.566Z,10.85
2019-03-09T12:42:47.727Z,12.03
2019-03-09T12:45:17.392Z,14.78
2019-03-09T12:47:46.453Z,13.38
2019-03-09T12:50:17.673Z,13.08
2019-03-09T12:52:46.588Z,13.75
2019-03-09T12:55:15.568Z,18.37
2019-03-09T12:57:44.674Z,12.80
2019-03-09T13:00:17.049Z,17.30
2019-03-09T13:02:48.803Z,12.30
2019-03-09T13:05:18.495Z,16.60
2019-03-09T13:07:47.502Z,14.35
2019-03-09T13:10:17.157Z,12.58
2019-03-09T13:12:46.313Z,14.75
2019-03-09T13:15:16.794Z,18.35
2019-03-09T13:17:45.961Z,16.32
2019-03-09T13:20:16.255Z,11.97
2019-03-09T13:22:45.234Z,11.85
2019-03-09T13:25:14.496Z,11.60
2019-03-09T13:27:43.583Z,10.65
2019-03-09T13:30:20.999Z,13.03
2019-03-09T13:32:49.922Z,14.93
2019-03-09T13:35:18.924Z,14.45
2019-03-09T13:37:47.913Z,12.33
2019-03-09T13:40:17.377Z,11.45
2019-03-09T13:42:46.726Z,12.95
2019-03-09T13:45:18.733Z,12.40
2019-03-09T13:47:47.575Z,13.32
2019-03-09T13:50:16.779Z,15.98
2019-03-09T13:52:45.776Z,12.03
2019-03-09T13:55:14.781Z,18.48
2019-03-09T13:57:43.861Z,14.68
2019-03-09T14:00:16.785Z,20.30
2019-03-09T14:02:46.046Z,13.38
2019-03-09T14:05:15.267Z,17.98
2019-03-09T14:07:44.339Z,16.25
2019-03-09T14:10:14.866Z,14.85
2019-03-09T14:12:43.864Z,10.48
2019-03-09T14:15:14.423Z,14.70
2019-03-09T14:17:44.918Z,16.95
2019-03-09T14:20:17.600Z,17.57
2019-03-09T14:22:46.594Z,21.07
2019-03-09T14:25:16.509Z,15.03
2019-03-09T14:27:45.503Z,18.00
2019-03-09T14:30:16.435Z,21.60
2019-03-09T14:32:45.326Z,14.13
2019-03-09T14:35:15.132Z,20.30
2019-03-09T14:37:44.026Z,16.32
2019-03-09T14:40:16.893Z,14.43
2019-03-09T14:42:46.006Z,13.38
2019-03-09T14:45:18.048Z,15.98
2019-03-09T14:47:46.964Z,15.28
2019-03-09T14:50:16.041Z,20.30
2019-03-09T14:52:48.871Z,17.35
2019-03-09T14:55:17.635Z,18.00
2019-03-09T14:57:46.623Z,23.52
2019-03-09T15:00:23.648Z,21.33
2019-03-09T15:02:52.581Z,18.65
2019-03-09T15:05:21.693Z,17.77
2019-03-09T15:07:50.586Z,24.60
2019-03-09T15:10:20.869Z,24.37
2019-03-09T15:12:49.798Z,20.68
2019-03-09T15:15:19.823Z,19.98
2019-03-09T15:17:48.705Z,13.25
2019-03-09T15:20:18.698Z,22.40
2019-03-09T15:22:47.616Z,18.57
2019-03-09T15:25:20.922Z,23.80
2019-03-09T15:27:49.911Z,16.70
2019-03-09T15:30:19.746Z,24.02
2019-03-09T15:32:48.679Z,18.07
2019-03-09T15:35:18.464Z,29.30
2019-03-09T15:37:49.432Z,20.02
2019-03-09T15:40:18.872Z,20.85
2019-03-09T15:42:47.873Z,20.75
2019-03-09T15:45:22.378Z,18.05
2019-03-09T15:47:51.989Z,23.52
2019-03-09T15:50:22.211Z,25.12
2019-03-09T15:52:51.236Z,23.87
2019-03-09T15:55:40.261Z,20.25
2019-03-09T15:58:09.466Z,23.15
2019-03-09T16:00:38.560Z,18.02
2019-03-09T16:03:07.655Z,19.87
2019-03-09T16:05:36.636Z,16.85
2019-03-09T16:08:07.400Z,20.23
2019-03-09T16:10:36.067Z,18.85
2019-03-09T16:13:05.265Z,20.05
2019-03-09T16:15:34.259Z,27.75
2019-03-09T16:18:03.556Z,24.00
2019-03-09T16:20:32.554Z,23.98
2019-03-09T16:23:01.654Z,19.80
2019-03-09T16:25:30.507Z,26.85
2019-03-09T16:27:59.530Z,20.80
2019-03-09T16:30:29.852Z,22.45
2019-03-09T16:32:58.749Z,22.02
2019-03-09T16:35:27.758Z,21.85
2019-03-09T16:37:56.737Z,26.70
2019-03-09T16:40:26.350Z,27.15
2019-03-09T16:42:55.174Z,21.87
2019-03-09T16:45:24.119Z,30.48
2019-03-09T16:47:53.012Z,31.27
2019-03-09T16:50:22.001Z,27.05
2019-03-09T16:52:50.995Z,27.48
2019-03-09T16:55:19.989Z,26.95
2019-03-09T16:57:48.982Z,26.70
2019-03-09T17:00:22.771Z,23.15
2019-03-09T17:02:51.775Z,25.43
2019-03-09T17:05:20.876Z,31.30
2019-03-09T17:07:49.762Z,29.20
2019-03-09T17:10:19.572Z,26.93
2019-03-09T17:12:48.667Z,23.67
2019-03-09T17:15:22.475Z,28.38
2019-03-09T17:17:51.372Z,27.27
2019-03-09T17:20:20.363Z,30.10
2019-03-09T17:22:49.356Z,25.88
2019-03-09T17:25:18.353Z,25.65
2019-03-09T17:27:47.350Z,29.15
2019-03-09T17:30:20.747Z,26.12
2019-03-09T17:32:49.706Z,27.80
2019-03-09T17:35:19.596Z,26.15
2019-03-09T17:37:48.644Z,29.05
2019-03-09T17:40:18.134Z,32.85
2019-03-09T17:42:47.149Z,26.20
2019-03-09T17:45:24.206Z,25.12
2019-03-09T17:47:53.116Z,30.97
2019-03-09T17:50:22.597Z,30.27
2019-03-09T17:52:51.608Z,34.27
2019-03-09T17:55:20.508Z,33.30
2019-03-09T17:57:49.599Z,34.75
2019-03-09T18:00:27.910Z,34.25
2019-03-09T18:02:56.903Z,35.70
2019-03-09T18:05:25.898Z,29.65
2019-03-09T18:08:01.349Z,31.97
2019-03-09T18:10:35.980Z,35.28
2019-03-09T18:13:04.821Z,36.90
2019-03-09T18:15:36.097Z,35.50
2019-03-09T18:18:05.187Z,38.75
2019-03-09T18:20:35.515Z,37.70
2019-03-09T18:23:04.587Z,40.98
2019-03-09T18:25:33.673Z,33.50
2019-03-09T18:28:02.756Z,40.03
2019-03-09T18:30:31.802Z,38.38
2019-03-09T18:33:00.767Z,38.78
2019-03-09T18:35:29.757Z,40.15
2019-03-09T18:37:58.750Z,33.18
2019-03-09T18:40:27.743Z,35.50
2019-03-09T18:42:56.736Z,37.45
2019-03-09T18:45:26.036Z,43.83
2019-03-09T18:47:55.031Z,32.63
2019-03-09T18:50:23.864Z,37.00
2019-03-09T18:52:52.807Z,34.58
2019-03-09T18:55:21.709Z,40.35
2019-03-09T18:57:50.585Z,35.25
2019-03-09T19:00:23.069Z,38.42
2019-03-09T19:05:20.139Z,38.67
2019-03-09T19:07:49.312Z,37.63
2019-03-09T19:10:25.140Z,35.08
2019-03-09T19:12:56.051Z,39.42
2019-03-09T19:15:25.012Z,35.75
2019-03-09T19:17:53.846Z,34.65
2019-03-09T19:20:22.715Z,38.60
2019-03-09T19:22:51.783Z,36.38
2019-03-09T19:25:20.776Z,30.68
2019-03-09T19:27:49.674Z,33.35
2019-03-09T19:30:23.062Z,31.52
2019-03-09T19:32:59.968Z,30.52
2019-03-09T19:35:22.587Z,32.50
2019-03-09T19:37:52.714Z,31.00
2019-03-09T19:40:22.420Z,34.00
2019-03-09T19:42:51.509Z,32.25
2019-03-09T19:45:21.580Z,29.32
2019-03-09T19:47:50.623Z,33.70
2019-03-09T19:50:27.700Z,28.92
2019-03-09T19:52:59.187Z,32.83
2019-03-09T19:55:28.366Z,30.00
2019-03-09T19:58:04.391Z,30.43
2019-03-09T20:00:39.757Z,30.88
2019-03-09T20:03:13.975Z,26.17
2019-03-09T20:05:42.832Z,26.75
2019-03-09T20:08:11.958Z,28.75
2019-03-09T20:10:40.955Z,24.52
2019-03-09T20:13:09.944Z,24.98
2019-03-09T20:15:40.171Z,24.90
2019-03-09T20:18:33.055Z,23.38
2019-03-09T20:21:13.483Z,21.20
2019-03-09T20:23:45.536Z,21.27
2019-03-09T20:26:15.699Z,21.40
2019-03-09T20:28:45.167Z,20.45
2019-03-09T20:31:14.163Z,21.65
2019-03-09T20:33:44.580Z,23.07
2019-03-09T20:36:13.568Z,19.60
2019-03-09T20:38:42.582Z,18.45
2019-03-09T20:41:11.570Z,16.85
2019-03-09T20:43:40.562Z,12.35
2019-03-09T20:46:09.557Z,16.23
2019-03-09T20:48:38.553Z,11.43
2019-03-09T20:51:07.517Z,13.13
2019-03-09T20:53:36.535Z,11.38
2019-03-09T20:56:05.530Z,11.30
2019-03-09T20:58:34.525Z,11.68
2019-03-09T21:01:03.516Z,17.25
2019-03-09T21:03:32.895Z,8.78
2019-03-09T21:06:01.818Z,8.93
2019-03-09T21:08:30.804Z,9.20
2019-03-09T21:11:04.030Z,10.08
2019-03-09T21:13:31.859Z,6.83
2019-03-09T21:16:01.754Z,6.45
2019-03-09T21:18:31.583Z,7.05
2019-03-09T21:21:00.475Z,11.85
2019-03-09T21:23:29.467Z,5.42
2019-03-09T21:25:59.598Z,7.03
2019-03-09T21:28:28.583Z,5.87
2019-03-09T21:30:57.576Z,4.95
2019-03-09T21:33:26.571Z,4.90
2019-03-09T21:35:55.536Z,6.00
2019-03-09T21:38:24.555Z,6.50
2019-03-09T21:40:53.554Z,5.22
2019-03-09T21:43:24.048Z,5.72
2019-03-09T21:45:53.071Z,3.60
2019-03-09T21:48:22.064Z,6.65
2019-03-09T21:50:51.056Z,5.80
2019-03-09T21:53:19.940Z,3.50
2019-03-09T21:55:48.838Z,6.50
2019-03-09T21:58:17.648Z,4.40
2019-03-09T22:00:46.723Z,3.35
2019-03-09T22:03:15.716Z,3.12
2019-03-09T22:05:44.710Z,2.17
2019-03-09T22:08:13.702Z,3.90
2019-03-09T22:10:42.697Z,6.72
2019-03-09T22:13:11.687Z,4.55
2019-03-09T22:15:40.573Z,3.67
2019-03-09T22:18:09.469Z,6.25
2019-03-09T22:20:38.363Z,6.10
2019-03-09T22:23:07.242Z,6.33
2019-03-09T22:25:36.112Z,11.55
2019-03-09T22:28:05.032Z,4.20
2019-03-09T22:30:33.915Z,6.45
2019-03-09T22:33:04.629Z,9.50
2019-03-09T22:35:33.437Z,6.90
2019-03-09T22:38:02.450Z,9.35
2019-03-09T22:40:31.534Z,12.65
2019-03-09T22:43:00.528Z,10.05
2019-03-09T22:45:29.409Z,9.98
2019-03-09T22:47:58.406Z,13.05
2019-03-09T22:50:27.814Z,18.98
2019-03-09T22:52:56.807Z,17.62
2019-03-09T22:55:25.801Z,16.20
2019-03-09T22:57:54.793Z,17.45
2019-03-09T23:00:24.925Z,14.38
2019-03-09T23:02:53.777Z,15.23
2019-03-09T23:05:22.795Z,14.53
2019-03-09T23:07:51.688Z,12.53
2019-03-09T23:10:24.672Z,18.00
2019-03-09T23:12:53.668Z,13.85
2019-03-09T23:15:22.759Z,15.58
2019-03-09T23:17:51.651Z,19.05
2019-03-09T23:20:20.535Z,15.90
2019-03-09T23:22:50.452Z,18.15
2019-03-09T23:25:19.564Z,11.85
2019-03-09T23:27:48.434Z,16.48
2019-03-09T23:30:23.673Z,12.88
2019-03-09T23:32:52.680Z,14.95
2019-03-09T23:35:21.795Z,15.38
2019-03-09T23:37:50.765Z,21.10
2019-03-09T23:40:23.650Z,15.83
2019-03-09T23:42:52.645Z,14.03
2019-03-09T23:45:23.274Z,14.90
2019-03-09T23:47:52.351Z,16.90
2019-03-09T23:50:21.448Z,20.02
2019-03-09T23:52:50.767Z,24.70
2019-03-09T23:55:22.375Z,18.32
2019-03-09T23:57:50.735Z,21.12
